Time;durP1;ratioP1;P1;durP2;ratioP2;P2;SDS_P1;SDS_P2;PMS_P1;PMS_P2;Temp;Humidity;BMP_temperature;BMP_pressure;BME280_temperature;BME280_humidity;BME280_pressure;Samples;Min_cycle;Max_cycle;Signal;HPM_P1;HPM_P2
2023/10/18 00:02:03;;;;;;;5.23;4.60;;;5.70;99.90;;;;;;5098513;28;20202;-66
2023/10/18 00:04:29;;;;;;;4.53;4.13;;;5.70;99.90;;;;;;5107531;28;20293;-67
2023/10/18 00:06:56;;;;;;;4.60;4.20;;;5.60;99.90;;;;;;5107556;28;20322;-66
2023/10/18 00:12:09;;;;;;;5.60;4.20;;;5.50;99.90;;;;;;5106933;28;20985;-66
2023/10/18 00:14:39;;;;;;;7.33;4.30;;;5.50;99.90;;;;;;5100891;28;20206;-66
2023/10/18 00:17:06;;;;;;;4.77;4.33;;;5.50;99.90;;;;;;5099006;28;20230;-67
2023/10/18 00:19:33;;;;;;;5.63;4.77;;;5.40;99.90;;;;;;5106806;28;20263;-67
2023/10/18 00:22:00;;;;;;;5.97;4.53;;;5.40;99.90;;;;;;5106416;28;20217;-66
2023/10/18 00:24:26;;;;;;;4.60;4.20;;;5.40;99.90;;;;;;5107190;28;20301;-66
2023/10/18 00:26:54;;;;;;;5.50;4.57;;;5.40;99.90;;;;;;5106459;28;20202;-66
2023/10/18 00:29:22;;;;;;;5.07;4.60;;;5.40;99.90;;;;;;5106926;28;20209;-67
2023/10/18 00:31:49;;;;;;;5.57;4.40;;;5.20;99.90;;;;;;5086338;28;20194;-66
2023/10/18 00:34:15;;;;;;;5.00;4.50;;;5.20;99.90;;;;;;5086214;28;20199;-66
2023/10/18 00:36:43;;;;;;;5.37;4.57;;;5.30;99.90;;;;;;5085974;28;20250;-67
2023/10/18 00:39:21;;;;;;;4.70;4.30;;;5.30;99.90;;;;;;5086236;28;20202;-66
2023/10/18 00:41:52;;;;;;;4.90;4.30;;;5.30;99.90;;;;;;5086218;28;20264;-67
2023/10/18 00:44:21;;;;;;;4.53;4.10;;;5.30;99.90;;;;;;5099829;28;20281;-66
2023/10/18 00:46:52;;;;;;;7.27;4.70;;;5.30;99.90;;;;;;5106690;28;20252;-67
2023/10/18 00:49:20;;;;;;;5.07;3.97;;;5.20;99.90;;;;;;5106306;28;20273;-66
2023/10/18 00:51:49;;;;;;;5.83;4.20;;;5.20;99.90;;;;;;5102301;28;20214;-66
2023/10/18 00:54:19;;;;;;;4.60;4.20;;;5.20;99.90;;;;;;5097919;28;20207;-66
2023/10/18 00:56:47;;;;;;;5.33;4.43;;;5.20;99.90;;;;;;5097863;28;20241;-66
2023/10/18 00:59:21;;;;;;;4.80;4.30;;;5.20;99.90;;;;;;5106443;28;20210;-67
2023/10/18 01:01:55;;;;;;;4.47;4.10;;;5.20;99.90;;;;;;5106433;27;20205;-66
2023/10/18 01:04:24;;;;;;;4.87;4.27;;;5.20;99.90;;;;;;5106507;28;20198;-67
2023/10/18 01:06:51;;;;;;;4.77;4.07;;;5.20;99.90;;;;;;5105701;28;20222;-68
2023/10/18 01:09:18;;;;;;;3.97;3.67;;;5.30;99.90;;;;;;5090042;28;20210;-66
2023/10/18 01:11:51;;;;;;;4.10;3.73;;;5.20;99.90;;;;;;5085951;28;20202;-66
2023/10/18 01:14:18;;;;;;;4.13;3.43;;;5.20;99.90;;;;;;5100468;28;20238;-66
2023/10/18 01:16:45;;;;;;;7.27;3.90;;;5.20;99.90;;;;;;5105670;28;20236;-65
2023/10/18 01:19:15;;;;;;;4.10;3.80;;;5.20;99.90;;;;;;5097710;28;20213;-65
2023/10/18 01:21:45;;;;;;;4.47;4.07;;;5.20;99.90;;;;;;5106056;28;20210;-67
2023/10/18 01:24:15;;;;;;;4.00;3.70;;;5.20;99.90;;;;;;5105854;28;20198;-65
2023/10/18 01:26:43;;;;;;;4.20;3.90;;;5.10;99.90;;;;;;5092810;28;20226;-66
2023/10/18 01:29:11;;;;;;;5.03;4.23;;;5.20;99.90;;;;;;5085099;28;20298;-66
2023/10/18 01:31:43;;;;;;;5.37;4.53;;;5.20;99.90;;;;;;5085733;28;20938;-65
2023/10/18 01:34:11;;;;;;;7.40;4.13;;;5.10;99.90;;;;;;5085151;28;20293;-65
2023/10/18 01:36:40;;;;;;;5.00;3.93;;;5.20;99.90;;;;;;5085095;28;20980;-65
2023/10/18 01:39:18;;;;;;;4.47;4.07;;;5.20;99.90;;;;;;5085226;28;20851;-65
2023/10/18 01:41:47;;;;;;;4.70;4.13;;;5.20;99.90;;;;;;5085752;28;20252;-65
2023/10/18 01:44:18;;;;;;;6.33;4.50;;;5.20;99.90;;;;;;5085864;28;20211;-65
2023/10/18 01:46:46;;;;;;;4.57;4.17;;;5.20;99.90;;;;;;5085980;28;20221;-65
2023/10/18 01:49:16;;;;;;;3.80;3.40;;;5.20;99.90;;;;;;5085233;28;20203;-65
2023/10/18 01:51:45;;;;;;;4.60;4.20;;;5.10;99.90;;;;;;5085619;28;20194;-65
2023/10/18 01:54:15;;;;;;;4.40;4.00;;;5.10;99.90;;;;;;5103430;28;20206;-65
2023/10/18 01:56:46;;;;;;;4.43;4.00;;;5.10;99.90;;;;;;5105639;28;20251;-65
2023/10/18 01:59:17;;;;;;;4.27;3.87;;;5.10;99.90;;;;;;5105575;28;20631;-65
2023/10/18 02:01:45;;;;;;;4.30;3.90;;;5.10;99.90;;;;;;5105691;28;20591;-65
2023/10/18 02:04:23;;;;;;;4.77;4.37;;;5.10;99.90;;;;;;5101830;28;20199;-65
2023/10/18 02:06:51;;;;;;;4.40;4.00;;;5.10;99.90;;;;;;5085763;28;20194;-65
2023/10/18 02:09:19;;;;;;;4.00;3.70;;;5.10;99.90;;;;;;5085579;28;20312;-65
2023/10/18 02:11:46;;;;;;;4.60;4.20;;;5.00;99.90;;;;;;5085654;28;20213;-66
2023/10/18 02:14:14;;;;;;;5.23;4.23;;;5.00;99.90;;;;;;5090131;28;20207;-65
2023/10/18 02:16:45;;;;;;;4.20;3.90;;;5.10;99.90;;;;;;5109493;27;20671;-65
2023/10/18 02:19:14;;;;;;;4.80;4.40;;;5.00;99.90;;;;;;5109206;28;20197;-66
2023/10/18 02:21:41;;;;;;;4.37;3.93;;;5.00;99.90;;;;;;5109634;28;20202;-65
2023/10/18 02:24:11;;;;;;;4.70;4.27;;;5.00;99.90;;;;;;5090439;28;20588;-64
2023/10/18 02:26:48;;;;;;;4.83;4.33;;;5.00;99.90;;;;;;5096225;28;20641;-65
2023/10/18 02:29:17;;;;;;;5.03;4.30;;;4.90;99.90;;;;;;5086822;28;20202;-65
2023/10/18 02:31:44;;;;;;;4.30;3.93;;;4.90;99.90;;;;;;5087140;28;20266;-65
2023/10/18 02:34:14;;;;;;;4.27;3.87;;;4.90;99.90;;;;;;5086873;28;20207;-66
2023/10/18 02:36:47;;;;;;;3.77;3.47;;;4.90;99.90;;;;;;5094721;28;20258;-65
2023/10/18 02:39:21;;;;;;;4.93;4.23;;;4.80;99.90;;;;;;5107438;28;20204;-65
2023/10/18 02:41:49;;;;;;;4.50;4.10;;;4.80;99.90;;;;;;5107376;28;20205;-65
2023/10/18 02:44:22;;;;;;;4.30;4.00;;;4.80;99.90;;;;;;5092386;28;20225;-65
2023/10/18 02:46:51;;;;;;;4.23;3.93;;;4.80;99.90;;;;;;5086956;28;20230;-66
2023/10/18 02:49:18;;;;;;;5.40;3.57;;;4.80;99.90;;;;;;5087131;28;20268;-66
2023/10/18 02:51:45;;;;;;;4.53;4.00;;;4.70;99.90;;;;;;5105920;28;20210;-65
2023/10/18 02:54:17;;;;;;;4.20;3.90;;;4.70;99.90;;;;;;5107250;28;20210;-66
2023/10/18 02:56:50;;;;;;;3.80;3.50;;;4.70;99.90;;;;;;5107219;28;20684;-65
2023/10/18 02:59:20;;;;;;;4.47;4.07;;;4.70;99.90;;;;;;5096976;28;20264;-65
2023/10/18 03:01:49;;;;;;;4.27;3.87;;;4.70;99.90;;;;;;5087130;28;20278;-68
2023/10/18 03:04:16;;;;;;;4.60;3.83;;;4.70;99.90;;;;;;5095934;28;20202;-66
2023/10/18 03:06:45;;;;;;;3.83;3.40;;;4.70;99.90;;;;;;5106997;28;20222;-65
2023/10/18 03:09:26;;;;;;;4.03;3.73;;;4.70;99.90;;;;;;5096502;28;20213;-65
2023/10/18 03:11:54;;;;;;;4.20;3.87;;;4.60;99.90;;;;;;5087766;28;20253;-66
2023/10/18 03:14:36;;;;;;;4.17;3.87;;;4.60;99.90;;;;;;5098451;28;20210;-65
2023/10/18 03:17:14;;;;;;;4.67;4.03;;;4.60;99.90;;;;;;5086804;28;20226;-65
2023/10/18 03:19:41;;;;;;;3.70;3.40;;;4.60;99.90;;;;;;5086618;28;20229;-65
2023/10/18 03:22:08;;;;;;;4.43;4.03;;;4.60;99.90;;;;;;5087154;28;20217;-67
2023/10/18 03:24:36;;;;;;;5.10;3.60;;;4.60;99.90;;;;;;5087044;28;20210;-65
2023/10/18 03:27:08;;;;;;;4.67;3.63;;;4.70;99.90;;;;;;5086302;28;20297;-67
2023/10/18 03:29:37;;;;;;;4.53;4.13;;;4.60;99.90;;;;;;5087071;28;20195;-65
2023/10/18 03:32:06;;;;;;;4.37;3.97;;;4.60;99.90;;;;;;5087492;28;20294;-65
2023/10/18 03:34:35;;;;;;;4.43;4.03;;;4.60;99.90;;;;;;5087656;28;20225;-65
2023/10/18 03:37:04;;;;;;;4.43;4.03;;;4.60;99.90;;;;;;5087036;28;21015;-65
2023/10/18 03:39:32;;;;;;;4.87;4.33;;;4.60;99.90;;;;;;5087676;28;20209;-65
2023/10/18 03:42:00;;;;;;;4.63;4.23;;;4.60;99.90;;;;;;5087271;28;20210;-66
2023/10/18 03:44:28;;;;;;;4.93;4.53;;;4.60;99.90;;;;;;5103638;28;20227;-65
2023/10/18 03:47:04;;;;;;;5.73;5.00;;;4.60;99.90;;;;;;5097439;28;20728;-65
2023/10/18 03:49:33;;;;;;;6.90;4.73;;;4.60;99.90;;;;;;5087622;28;20854;-66
2023/10/18 03:52:16;;;;;;;5.30;4.80;;;4.50;99.90;;;;;;5087562;28;20252;-65
2023/10/18 03:54:46;;;;;;;4.70;4.30;;;4.50;99.90;;;;;;5087905;28;20226;-65
2023/10/18 03:57:17;;;;;;;4.90;4.50;;;4.50;99.90;;;;;;5086720;28;20238;-65
2023/10/18 03:59:46;;;;;;;4.90;4.40;;;4.50;99.90;;;;;;5087107;28;20642;-66
2023/10/18 04:02:26;;;;;;;6.30;4.10;;;4.40;99.90;;;;;;5086883;28;20206;-66
2023/10/18 04:04:58;;;;;;;6.03;4.97;;;4.40;99.90;;;;;;5087132;28;20302;-65
2023/10/18 04:07:26;;;;;;;7.67;4.70;;;4.40;99.90;;;;;;5102101;28;20190;-66
2023/10/18 04:10:04;;;;;;;5.73;5.10;;;4.40;99.90;;;;;;5107427;28;20684;-66
2023/10/18 04:12:32;;;;;;;4.90;4.53;;;4.40;99.90;;;;;;5107500;28;20239;-65
2023/10/18 04:14:59;;;;;;;5.50;4.60;;;4.40;99.90;;;;;;5086886;28;20299;-65
2023/10/18 04:17:38;;;;;;;7.37;4.83;;;4.40;99.90;;;;;;5086426;28;20230;-65
2023/10/18 04:20:15;;;;;;;5.57;5.07;;;4.40;99.90;;;;;;5086412;28;20664;-66
2023/10/18 04:22:47;;;;;;;5.60;5.10;;;4.30;99.90;;;;;;5087254;28;20194;-65
2023/10/18 04:25:16;;;;;;;9.97;6.03;;;4.40;99.90;;;;;;5086334;28;20696;-66
2023/10/18 04:27:44;;;;;;;6.07;5.10;;;4.40;99.90;;;;;;5086514;28;20206;-66
2023/10/18 04:30:16;;;;;;;6.63;4.73;;;4.40;99.90;;;;;;5086260;28;20214;-65
2023/10/18 04:32:45;;;;;;;5.57;5.07;;;4.40;99.90;;;;;;5086264;28;20198;-66
2023/10/18 04:35:18;;;;;;;7.40;5.53;;;4.40;99.90;;;;;;5086333;28;20399;-67
2023/10/18 04:37:47;;;;;;;6.13;5.53;;;4.40;99.90;;;;;;5085813;28;20223;-66
2023/10/18 04:40:22;;;;;;;5.97;5.40;;;4.40;99.90;;;;;;5086042;28;20304;-66
2023/10/18 04:42:50;;;;;;;6.10;5.10;;;4.40;99.90;;;;;;5091450;28;20198;-66
2023/10/18 04:45:18;;;;;;;8.80;5.90;;;4.40;99.90;;;;;;5086089;28;20203;-67
2023/10/18 04:47:49;;;;;;;6.10;5.50;;;4.30;99.90;;;;;;5086371;28;20211;-66
2023/10/18 04:50:19;;;;;;;6.10;5.60;;;4.30;99.90;;;;;;5085846;28;20838;-66
2023/10/18 04:52:50;;;;;;;6.67;6.00;;;4.30;99.90;;;;;;5086393;28;20552;-66
2023/10/18 04:55:17;;;;;;;10.53;5.70;;;4.40;99.90;;;;;;5086079;28;20235;-66
2023/10/18 04:57:46;;;;;;;5.97;5.37;;;4.40;99.90;;;;;;5085933;28;20231;-66
2023/10/18 05:00:35;;;;;;;9.07;7.57;;;4.30;99.90;;;;;;5085448;28;20214;-66
2023/10/18 05:03:06;;;;;;;8.83;6.27;;;4.30;99.90;;;;;;5086000;28;20203;-67
2023/10/18 05:05:37;;;;;;;6.77;5.97;;;4.30;99.90;;;;;;5105873;28;20204;-67
2023/10/18 05:08:04;;;;;;;7.97;6.20;;;4.30;99.90;;;;;;5106464;28;20229;-66
2023/10/18 05:10:31;;;;;;;7.27;6.53;;;4.30;99.90;;;;;;5102378;28;20218;-66
2023/10/18 05:13:10;;;;;;;6.60;5.97;;;4.20;99.90;;;;;;5087807;28;20250;-67
2023/10/18 05:15:37;;;;;;;8.53;5.43;;;4.20;99.90;;;;;;5105842;28;20203;-66
2023/10/18 05:18:06;;;;;;;7.40;6.17;;;4.20;99.90;;;;;;5105500;28;20234;-67
2023/10/18 05:20:57;;;;;;;7.63;6.10;;;4.20;99.90;;;;;;5106257;28;20237;-66
2023/10/18 05:23:25;;;;;;;7.27;6.57;;;4.30;99.90;;;;;;5106126;28;20269;-66
2023/10/18 05:26:04;;;;;;;9.03;6.20;;;4.30;99.90;;;;;;5100957;28;20301;-66
2023/10/18 05:28:46;;;;;;;7.73;6.20;;;4.30;99.90;;;;;;5085647;28;20276;-66
2023/10/18 05:34:22;;;;;;;7.07;6.23;;;4.30;99.90;;;;;;5041953;28;20200;-66
2023/10/18 05:37:13;;;;;;;9.07;6.93;;;4.20;99.90;;;;;;5078047;28;20265;-66
2023/10/18 05:40:41;;;;;;;10.27;7.40;;;4.10;99.90;;;;;;5085461;28;20201;-66
2023/10/18 05:42:36;;;;;;;13.30;8.90;;;4.10;99.90;;;;;;5085210;28;20793;-66
2023/10/18 05:45:03;;;;;;;10.57;8.43;;;4.10;99.90;;;;;;5085148;28;20281;-67
2023/10/18 05:47:31;;;;;;;11.97;9.03;;;4.10;99.90;;;;;;5085165;28;20738;-66
2023/10/18 05:50:00;;;;;;;13.10;9.67;;;4.10;99.90;;;;;;5088941;28;20301;-66
2023/10/18 05:52:37;;;;;;;12.43;9.07;;;4.10;99.90;;;;;;5089626;28;20219;-66
2023/10/18 05:55:08;;;;;;;13.77;8.70;;;4.10;99.90;;;;;;5089117;28;20233;-66
2023/10/18 05:57:35;;;;;;;10.00;8.63;;;4.10;99.90;;;;;;5089762;28;20222;-66
2023/10/18 06:00:15;;;;;;;8.10;7.23;;;4.10;99.90;;;;;;5089254;28;20214;-67
2023/10/18 06:02:42;;;;;;;8.03;7.17;;;4.20;99.90;;;;;;5089740;28;20248;-67
2023/10/18 06:05:11;;;;;;;10.57;7.27;;;4.30;99.90;;;;;;5089074;28;20199;-66
2023/10/18 06:07:38;;;;;;;12.63;10.97;;;4.40;99.90;;;;;;5089378;28;20215;-66
2023/10/18 06:10:13;;;;;;;12.10;8.87;;;4.50;99.90;;;;;;5089300;28;20227;-67
2023/10/18 06:12:46;;;;;;;9.60;7.30;;;4.50;99.90;;;;;;5090523;28;20198;-66
2023/10/18 06:15:13;;;;;;;8.63;6.97;;;4.50;99.90;;;;;;5109712;28;20219;-66
2023/10/18 06:17:53;;;;;;;8.73;6.50;;;4.50;99.90;;;;;;5109449;28;20226;-66
2023/10/18 06:20:28;;;;;;;6.60;6.00;;;4.50;99.90;;;;;;5109915;27;20228;-67
2023/10/18 06:23:07;;;;;;;6.73;5.97;;;4.60;99.90;;;;;;5109469;28;20186;-67
2023/10/18 06:25:35;;;;;;;6.17;5.60;;;4.60;99.90;;;;;;5106589;28;20194;-66
2023/10/18 06:28:06;;;;;;;6.67;5.93;;;4.60;99.90;;;;;;5089169;28;20207;-67
2023/10/18 06:30:39;;;;;;;7.97;6.13;;;4.60;99.90;;;;;;5089197;28;20199;-67
2023/10/18 06:33:08;;;;;;;6.60;6.00;;;4.70;99.90;;;;;;5088583;28;20191;-67
2023/10/18 06:35:51;;;;;;;6.53;5.70;;;4.70;99.90;;;;;;5097876;28;20592;-66
2023/10/18 06:38:18;;;;;;;7.77;5.90;;;4.70;99.90;;;;;;5109344;28;20229;-66
2023/10/18 06:40:50;;;;;;;7.20;6.50;;;4.70;99.90;;;;;;5109531;28;20206;-66
2023/10/18 06:43:19;;;;;;;7.77;6.37;;;4.80;99.90;;;;;;5109146;28;20335;-66
2023/10/18 06:45:46;;;;;;;7.00;5.60;;;4.80;99.90;;;;;;5108826;28;20205;-66
2023/10/18 06:48:14;;;;;;;7.30;5.70;;;4.90;99.90;;;;;;5108531;28;20267;-67
2023/10/18 06:50:45;;;;;;;6.93;6.27;;;4.90;99.90;;;;;;5109114;28;20210;-66
2023/10/18 06:53:14;;;;;;;7.43;6.40;;;4.90;99.90;;;;;;5109138;28;20202;-66
2023/10/18 06:55:44;;;;;;;7.33;6.47;;;5.00;99.90;;;;;;5108568;28;20230;-66
2023/10/18 06:58:41;;;;;;;9.90;6.70;;;5.00;99.90;;;;;;5108638;28;20711;-67
2023/10/18 07:01:08;;;;;;;10.67;7.37;;;5.10;99.90;;;;;;5108265;28;20217;-66
2023/10/18 07:03:37;;;;;;;11.03;7.07;;;5.10;99.90;;;;;;5105168;28;20305;-66
2023/10/18 07:06:16;;;;;;;8.87;7.33;;;5.20;99.90;;;;;;5088028;28;20207;-66
2023/10/18 07:08:44;;;;;;;13.90;7.37;;;5.20;99.90;;;;;;5088495;28;20213;-66
2023/10/18 07:11:16;;;;;;;8.40;6.87;;;5.30;99.90;;;;;;5088455;28;20213;-66
2023/10/18 07:13:46;;;;;;;9.40;6.83;;;5.40;99.90;;;;;;5098178;28;20210;-66
2023/10/18 07:16:15;;;;;;;10.87;6.93;;;5.40;99.90;;;;;;5108420;28;20210;-66
2023/10/18 07:18:44;;;;;;;9.97;7.47;;;5.50;99.90;;;;;;5108136;28;20225;-66
2023/10/18 07:21:18;;;;;;;7.97;6.77;;;5.60;99.90;;;;;;5108334;28;20210;-66
2023/10/18 07:23:53;;;;;;;10.60;7.57;;;5.70;99.90;;;;;;5108487;28;20193;-66
2023/10/18 07:26:21;;;;;;;7.17;6.47;;;5.80;99.90;;;;;;5099208;28;20522;-66
2023/10/18 07:28:49;;;;;;;8.73;7.00;;;6.00;99.90;;;;;;5087805;28;20295;-66
2023/10/18 07:31:17;;;;;;;7.80;6.70;;;6.10;99.90;;;;;;5091641;28;20214;-66
2023/10/18 07:33:45;;;;;;;9.37;7.20;;;6.20;99.90;;;;;;5107585;27;20216;-66
2023/10/18 07:36:17;;;;;;;7.43;6.50;;;6.30;99.90;;;;;;5107645;28;20634;-66
2023/10/18 07:38:48;;;;;;;8.23;7.03;;;6.40;99.90;;;;;;5107926;28;20320;-66
2023/10/18 07:41:17;;;;;;;8.83;6.97;;;6.50;99.90;;;;;;5107738;28;20187;-66
2023/10/18 07:43:44;;;;;;;8.60;6.73;;;6.50;99.90;;;;;;5107334;28;20218;-66
2023/10/18 07:46:16;;;;;;;10.23;6.90;;;6.70;99.90;;;;;;5107402;28;20214;-66
2023/10/18 07:48:47;;;;;;;7.87;6.13;;;6.80;99.90;;;;;;5107824;28;20195;-66
2023/10/18 07:51:24;;;;;;;8.03;6.37;;;6.90;99.90;;;;;;5107567;28;20242;-66
2023/10/18 07:53:53;;;;;;;9.30;7.20;;;7.00;99.90;;;;;;5107699;27;20296;-66
2023/10/18 07:56:26;;;;;;;8.80;7.30;;;7.20;99.90;;;;;;5107517;28;20226;-66
2023/10/18 07:58:55;;;;;;;9.23;6.77;;;7.30;99.90;;;;;;5107199;28;20225;-66
2023/10/18 08:04:07;;;;;;;8.07;6.40;;;7.40;99.90;;;;;;5098699;28;20683;-66
2023/10/18 08:06:35;;;;;;;6.67;6.07;;;7.50;99.90;;;;;;5107449;28;20581;-66
2023/10/18 08:09:05;;;;;;;7.90;7.00;;;7.60;99.90;;;;;;5107720;27;20210;-66
2023/10/18 08:11:34;;;;;;;8.53;7.40;;;7.70;99.90;;;;;;5106595;28;20214;-66
2023/10/18 08:14:16;;;;;;;8.70;6.63;;;7.80;99.90;;;;;;5095042;28;20234;-66
2023/10/18 08:16:52;;;;;;;7.30;6.60;;;7.90;99.90;;;;;;5086759;28;20222;-67
2023/10/18 08:19:25;;;;;;;8.53;7.40;;;8.00;99.90;;;;;;5086823;28;20227;-66
2023/10/18 08:22:05;;;;;;;8.47;7.60;;;8.10;99.90;;;;;;5086759;28;20187;-66
2023/10/18 08:24:34;;;;;;;9.20;7.57;;;8.20;99.90;;;;;;5087184;28;20366;-66
2023/10/18 08:27:09;;;;;;;10.37;7.67;;;8.30;99.90;;;;;;5086507;28;20215;-66
2023/10/18 08:29:36;;;;;;;8.63;7.10;;;8.40;99.90;;;;;;5107107;28;20201;-67
2023/10/18 08:32:09;;;;;;;11.73;7.57;;;8.50;99.90;;;;;;5106808;28;20204;-66
2023/10/18 08:34:36;;;;;;;8.47;7.33;;;8.50;99.90;;;;;;5106864;28;20196;-66
2023/10/18 08:37:06;;;;;;;8.90;7.90;;;8.60;99.90;;;;;;5106483;28;20333;-66
2023/10/18 08:39:39;;;;;;;9.97;7.40;;;8.70;99.90;;;;;;5106479;27;20253;-66
2023/10/18 08:42:10;;;;;;;7.97;7.20;;;8.80;99.90;;;;;;5106357;28;20199;-66
2023/10/18 08:44:39;;;;;;;10.47;7.77;;;8.90;99.90;;;;;;5089229;28;20213;-66
2023/10/18 08:47:12;;;;;;;7.57;6.87;;;9.00;99.90;;;;;;5087452;28;20238;-66
2023/10/18 08:49:51;;;;;;;7.93;7.03;;;9.10;99.90;;;;;;5106352;28;20578;-66
2023/10/18 08:52:23;;;;;;;11.63;7.70;;;9.20;99.90;;;;;;5106208;28;20284;-66
2023/10/18 08:54:50;;;;;;;9.10;7.53;;;9.30;99.90;;;;;;5106288;28;20237;-66
2023/10/18 08:57:31;;;;;;;8.23;7.00;;;9.40;99.90;;;;;;5092359;28;20206;-67
2023/10/18 09:00:17;;;;;;;9.30;7.90;;;9.60;99.90;;;;;;5085451;28;20222;-67
2023/10/18 09:02:44;;;;;;;8.40;7.60;;;9.70;99.90;;;;;;5085816;28;20202;-66
2023/10/18 09:05:11;;;;;;;8.93;7.97;;;9.80;99.90;;;;;;5085996;28;20205;-65
2023/10/18 09:07:45;;;;;;;10.33;8.13;;;9.90;99.90;;;;;;5085732;28;20770;-65
2023/10/18 09:10:33;;;;;;;8.50;7.60;;;10.00;99.90;;;;;;5085750;28;20539;-66
2023/10/18 09:15:54;;;;;;;8.57;7.63;;;10.10;99.90;;;;;;5105404;28;20198;-66
2023/10/18 09:18:22;;;;;;;6.87;6.13;;;10.20;99.90;;;;;;5105432;28;20254;-66
2023/10/18 09:20:50;;;;;;;7.57;6.90;;;10.30;99.90;;;;;;5105559;27;20724;-67
2023/10/18 09:23:20;;;;;;;9.67;6.43;;;10.50;99.90;;;;;;5105316;28;20249;-66
2023/10/18 09:25:50;;;;;;;7.27;6.57;;;10.60;99.90;;;;;;5085224;28;20198;-66
2023/10/18 09:28:25;;;;;;;6.80;5.80;;;10.70;99.90;;;;;;5084980;28;20247;-67
2023/10/18 09:30:53;;;;;;;6.57;6.07;;;10.70;99.90;;;;;;5084969;28;20277;-67
2023/10/18 09:33:21;;;;;;;6.83;5.77;;;10.80;99.90;;;;;;5084964;28;20289;-67
2023/10/18 09:35:49;;;;;;;5.90;5.40;;;10.90;99.90;;;;;;5085147;28;20234;-67
2023/10/18 09:38:18;;;;;;;5.70;5.20;;;11.00;99.90;;;;;;5084789;28;20230;-67
2023/10/18 09:40:47;;;;;;;6.53;5.70;;;11.10;99.90;;;;;;5084812;28;20297;-67
2023/10/18 09:43:14;;;;;;;5.80;5.03;;;11.20;99.90;;;;;;5090113;28;20296;-67
2023/10/18 09:45:41;;;;;;;7.07;5.40;;;11.30;99.90;;;;;;5095959;28;20289;-67
2023/10/18 09:48:11;;;;;;;5.80;5.20;;;11.30;99.90;;;;;;5105463;28;20232;-67
2023/10/18 09:50:41;;;;;;;5.80;5.30;;;11.30;99.90;;;;;;5105570;28;20273;-67
2023/10/18 09:53:11;;;;;;;5.50;5.00;;;11.30;99.90;;;;;;5094509;28;20214;-67
2023/10/18 09:55:42;;;;;;;6.40;5.80;;;11.30;99.90;;;;;;5085034;28;20678;-67
2023/10/18 09:58:15;;;;;;;6.10;5.50;;;11.30;99.90;;;;;;5085003;28;20215;-67
2023/10/18 10:00:42;;;;;;;4.80;4.50;;;11.50;99.90;;;;;;5085009;28;20280;-67
2023/10/18 10:03:10;;;;;;;5.90;5.37;;;11.60;99.90;;;;;;5084759;28;20234;-67
2023/10/18 10:05:43;;;;;;;5.97;5.57;;;11.60;99.90;;;;;;5085220;28;20249;-67
2023/10/18 10:08:10;;;;;;;5.87;5.40;;;11.70;99.90;;;;;;5085043;28;20298;-67
2023/10/18 10:10:44;;;;;;;7.40;5.33;;;11.80;99.90;;;;;;5085332;28;20297;-67
2023/10/18 10:13:19;;;;;;;5.73;5.33;;;12.00;99.90;;;;;;5090216;28;20974;-67
2023/10/18 10:15:54;;;;;;;5.90;5.33;;;12.00;99.90;;;;;;5105324;28;20563;-67
2023/10/18 10:18:25;;;;;;;6.40;5.80;;;12.20;99.90;;;;;;5105401;28;20302;-67
2023/10/18 10:20:55;;;;;;;6.50;5.90;;;12.40;99.90;;;;;;5093845;28;20199;-67
2023/10/18 10:23:23;;;;;;;6.40;5.87;;;12.50;99.90;;;;;;5085378;28;20260;-67
2023/10/18 10:26:12;;;;;;;6.50;5.47;;;12.60;99.90;;;;;;5085007;28;20295;-67
2023/10/18 10:31:52;;;;;;;6.03;5.53;;;12.80;99.90;;;;;;5085186;28;20313;-67
2023/10/18 10:34:26;;;;;;;5.17;4.77;;;13.00;99.90;;;;;;5085564;28;20209;-67
2023/10/18 10:36:54;;;;;;;6.03;5.63;;;13.10;99.90;;;;;;5088320;28;20231;-67
2023/10/18 10:39:30;;;;;;;7.97;5.07;;;13.00;99.90;;;;;;5088448;28;20663;-67
2023/10/18 10:42:09;;;;;;;5.20;4.90;;;13.10;99.90;;;;;;5099205;28;20221;-67
2023/10/18 10:45:10;;;;;;;5.07;4.67;;;13.10;99.90;;;;;;5091595;28;20213;-67
2023/10/18 10:47:43;;;;;;;4.90;4.57;;;13.20;99.90;;;;;;5088153;28;20195;-67
2023/10/18 10:50:11;;;;;;;5.10;4.70;;;13.30;99.90;;;;;;5088371;28;20211;-67
2023/10/18 10:52:40;;;;;;;6.30;4.70;;;13.30;99.90;;;;;;5097822;28;20206;-67
2023/10/18 10:55:21;;;;;;;5.17;4.67;;;13.30;99.90;;;;;;5108784;28;20313;-67
2023/10/18 10:57:50;;;;;;;4.53;4.20;;;13.30;99.90;;;;;;5108492;28;20198;-67
2023/10/18 11:03:29;;;;;;;5.93;3.73;;;13.50;99.90;;;;;;5107843;28;20206;-67
2023/10/18 11:05:58;;;;;;;6.50;4.40;;;13.60;99.90;;;;;;5101919;28;20206;-67
2023/10/18 11:08:27;;;;;;;4.03;3.73;;;13.50;99.90;;;;;;5108450;28;20205;-67
2023/10/18 11:10:54;;;;;;;4.33;3.80;;;13.50;99.90;;;;;;5108090;28;20232;-67
2023/10/18 11:13:24;;;;;;;3.80;3.50;;;13.60;99.90;;;;;;5108096;28;20293;-67
2023/10/18 11:15:52;;;;;;;3.73;3.47;;;13.90;99.90;;;;;;5107809;27;20661;-67
2023/10/18 11:18:22;;;;;;;4.03;3.73;;;14.00;99.90;;;;;;5107912;28;20376;-67
2023/10/18 11:20:57;;;;;;;3.40;3.20;;;14.10;99.90;;;;;;5107847;28;20294;-67
2023/10/18 11:23:27;;;;;;;5.07;4.10;;;14.20;99.90;;;;;;5107583;28;20201;-67
2023/10/18 11:25:56;;;;;;;3.87;3.50;;;14.30;99.90;;;;;;5102599;28;20843;-67
2023/10/18 11:28:29;;;;;;;3.27;2.97;;;14.40;99.90;;;;;;5087337;28;20245;-67
2023/10/18 11:30:57;;;;;;;3.10;2.80;;;14.40;99.90;;;;;;5086941;28;20201;-67
2023/10/18 11:33:46;;;;;;;2.90;2.70;;;14.50;99.90;;;;;;5087075;28;20682;-67
2023/10/18 11:36:18;;;;;;;3.43;3.20;;;14.50;99.90;;;;;;5086983;28;20627;-67
2023/10/18 11:39:07;;;;;;;3.50;3.20;;;14.70;99.90;;;;;;5102581;28;20308;-67
2023/10/18 11:41:34;;;;;;;3.60;3.33;;;14.80;99.90;;;;;;5107506;28;20194;-67
2023/10/18 11:44:06;;;;;;;3.23;3.03;;;14.90;99.90;;;;;;5107403;28;20240;-67
2023/10/18 11:46:47;;;;;;;3.83;3.40;;;15.10;99.90;;;;;;5089010;27;20214;-67
2023/10/18 11:49:15;;;;;;;3.27;2.93;;;15.10;99.90;;;;;;5099224;28;20216;-67
2023/10/18 11:51:44;;;;;;;3.10;2.90;;;15.30;99.90;;;;;;5106320;28;20229;-67
2023/10/18 11:54:12;;;;;;;2.97;2.73;;;15.30;99.90;;;;;;5106543;28;20222;-67
2023/10/18 11:56:39;;;;;;;3.73;3.50;;;15.40;99.90;;;;;;5107215;28;20297;-67
2023/10/18 11:59:07;;;;;;;3.37;3.10;;;15.40;99.90;;;;;;5106733;28;20222;-67
2023/10/18 12:01:34;;;;;;;3.17;2.90;;;15.50;99.90;;;;;;5107070;28;20293;-67
2023/10/18 12:04:01;;;;;;;4.87;3.17;;;15.60;99.90;;;;;;5106750;28;20210;-67
2023/10/18 12:06:28;;;;;;;2.67;2.47;;;15.50;99.90;;;;;;5106792;28;20206;-67
2023/10/18 12:09:25;;;;;;;3.67;2.97;;;15.50;99.90;;;;;;5106649;28;20222;-67
2023/10/18 12:11:52;;;;;;;3.43;2.93;;;15.70;99.90;;;;;;5106956;28;20302;-67
2023/10/18 12:14:22;;;;;;;3.70;3.10;;;15.70;99.90;;;;;;5101897;28;20298;-67
2023/10/18 12:16:50;;;;;;;4.17;3.30;;;15.70;99.90;;;;;;5106711;28;20195;-67
2023/10/18 12:19:18;;;;;;;2.70;2.53;;;15.80;99.90;;;;;;5105959;28;20264;-67
2023/10/18 12:21:48;;;;;;;4.30;2.90;;;16.00;99.90;;;;;;5106652;28;20292;-67
2023/10/18 12:24:16;;;;;;;3.67;3.40;;;16.10;99.90;;;;;;5106466;28;20229;-67
2023/10/18 12:26:45;;;;;;;3.40;3.10;;;16.10;99.90;;;;;;5094151;28;20289;-67
2023/10/18 12:29:17;;;;;;;3.20;2.90;;;16.10;99.90;;;;;;5086051;28;20227;-67
2023/10/18 12:31:52;;;;;;;3.03;2.73;;;16.10;99.90;;;;;;5085826;28;20199;-67
2023/10/18 12:34:28;;;;;;;3.20;2.90;;;16.10;99.90;;;;;;5095535;28;20205;-67
2023/10/18 12:36:58;;;;;;;3.70;3.40;;;16.10;99.90;;;;;;5106202;28;20240;-67
2023/10/18 12:39:25;;;;;;;4.00;3.27;;;16.20;99.90;;;;;;5106020;28;20726;-67
2023/10/18 12:41:55;;;;;;;2.80;2.70;;;16.30;99.90;;;;;;5105881;28;20206;-67
2023/10/18 12:44:25;;;;;;;2.83;2.67;;;16.30;99.90;;;;;;5102995;28;20198;-67
2023/10/18 12:46:54;;;;;;;3.60;3.30;;;16.40;99.90;;;;;;5086034;28;20665;-67
2023/10/18 12:49:23;;;;;;;3.60;3.30;;;16.40;99.90;;;;;;5085735;28;20630;-67
2023/10/18 12:51:59;;;;;;;3.33;3.13;;;16.60;99.90;;;;;;5086334;28;20210;-67
2023/10/18 12:54:30;;;;;;;3.50;3.17;;;16.50;99.90;;;;;;5085904;28;20765;-67
2023/10/18 12:57:08;;;;;;;3.50;3.17;;;16.70;99.90;;;;;;5085006;28;20191;-68
2023/10/18 12:59:37;;;;;;;3.10;2.90;;;16.80;99.90;;;;;;5085484;28;20224;-67
2023/10/18 13:02:11;;;;;;;3.00;2.80;;;16.80;99.90;;;;;;5085833;28;20210;-67
2023/10/18 13:04:38;;;;;;;5.53;3.50;;;16.90;99.90;;;;;;5086808;28;20202;-67
2023/10/18 13:07:19;;;;;;;3.43;3.10;;;17.10;99.90;;;;;;5088167;28;20722;-67
2023/10/18 13:09:49;;;;;;;3.70;3.00;;;17.00;99.90;;;;;;5104715;28;20669;-67
2023/10/18 13:12:16;;;;;;;3.37;3.07;;;17.00;99.90;;;;;;5104529;28;20263;-67
2023/10/18 13:14:43;;;;;;;4.23;3.57;;;17.10;99.90;;;;;;5104272;28;20263;-67
2023/10/18 13:17:13;;;;;;;4.00;3.70;;;17.20;99.90;;;;;;5104013;28;20232;-67
2023/10/18 13:19:44;;;;;;;4.33;3.93;;;17.20;99.90;;;;;;5104160;28;20225;-67
2023/10/18 13:22:17;;;;;;;3.90;3.60;;;17.30;99.90;;;;;;5103942;28;20208;-67
2023/10/18 13:24:45;;;;;;;3.57;3.27;;;17.30;99.90;;;;;;5103591;28;20289;-67
2023/10/18 13:27:15;;;;;;;10.13;4.33;;;17.20;99.90;;;;;;5103085;28;20293;-67
2023/10/18 13:29:48;;;;;;;4.20;3.90;;;17.20;99.90;;;;;;5093186;28;20779;-67
2023/10/18 13:32:18;;;;;;;4.63;4.20;;;17.10;99.90;;;;;;5103945;28;20194;-67